Time;durP1;ratioP1;P1;durP2;ratioP2;P2;SDS_P1;SDS_P2;PMS_P1;PMS_P2;Temp;Humidity;BMP_temperature;BMP_pressure;BME280_temperature;BME280_humidity;BME280_pressure;Samples;Min_cycle;Max_cycle;Signal;HPM_P1;HPM_P2
2021/08/31 01:25:23;;;;;;;;;;;18.30;99.90;;;;;;2616770;54;19979;-72
2021/08/31 01:27:49;;;;;;;;;;;18.40;99.90;;;;;;2618932;54;19934;-72
2021/08/31 01:30:15;;;;;;;;;;;18.30;99.90;;;;;;2619867;39;20378;-73
2021/08/31 01:32:41;;;;;;;;;;;18.30;99.90;;;;;;2619793;31;20429;-73
2021/08/31 01:35:07;;;;;;;;;;;18.30;99.90;;;;;;2619856;54;19939;-73
2021/08/31 01:37:32;;;;;;;;;;;18.30;99.90;;;;;;2619479;54;19946;-73
2021/08/31 01:39:58;;;;;;;;;;;18.30;99.90;;;;;;2619687;54;20399;-73
2021/08/31 01:42:26;;;;;;;;;;;18.20;99.90;;;;;;2619657;54;19941;-72
2021/08/31 01:44:52;;;;;;;;;;;18.20;99.90;;;;;;2619362;54;20054;-71
2021/08/31 01:47:18;;;;;;;;;;;18.10;99.90;;;;;;2619485;54;19939;-73
2021/08/31 01:49:43;;;;;;;;;;;17.90;99.90;;;;;;2619590;54;20422;-73
2021/08/31 01:52:09;;;;;;;;;;;17.70;99.90;;;;;;2619517;54;20042;-72
2021/08/31 01:54:35;;;;;;;;;;;17.60;99.90;;;;;;2619014;47;19935;-72
2021/08/31 01:57:01;;;;;;;;;;;17.60;99.90;;;;;;2619568;54;19969;-72
2021/08/31 01:59:29;;;;;;;;;;;17.60;99.90;;;;;;2619707;54;19939;-73
2021/08/31 02:01:55;;;;;;;;;;;17.70;99.90;;;;;;2618814;46;20482;-72
2021/08/31 02:04:20;;;;;;;;;;;17.60;99.90;;;;;;2619439;54;19960;-72
2021/08/31 02:06:46;;;;;;;;;;;17.60;99.90;;;;;;2619085;54;19938;-71
2021/08/31 02:09:12;;;;;;;;;;;17.60;99.90;;;;;;2619458;54;19973;-74
2021/08/31 02:11:38;;;;;;;;;;;17.50;99.90;;;;;;2619408;54;19946;-71
2021/08/31 02:14:03;;;;;;;;;;;17.50;99.90;;;;;;2619198;54;19935;-72
2021/08/31 02:16:32;;;;;;;;;;;17.50;99.90;;;;;;2619411;54;19939;-73
2021/08/31 02:18:57;;;;;;;;;;;17.50;99.90;;;;;;2619307;54;19934;-73
2021/08/31 02:21:23;;;;;;;;;;;17.40;99.90;;;;;;2619441;54;19969;-72
2021/08/31 02:23:49;;;;;;;;;;;17.30;99.90;;;;;;2619334;54;19935;-73
2021/08/31 02:26:15;;;;;;;;;;;17.40;99.90;;;;;;2619013;54;19938;-72
2021/08/31 02:28:40;;;;;;;;;;;17.40;99.90;;;;;;2619467;54;19945;-72
2021/08/31 02:31:06;;;;;;;;;;;17.50;99.90;;;;;;2618613;47;19939;-73
2021/08/31 02:33:35;;;;;;;;;;;17.50;99.90;;;;;;2619072;54;19938;-72
2021/08/31 02:36:00;;;;;;;;;;;17.40;99.90;;;;;;2618818;46;20419;-72
2021/08/31 02:38:26;;;;;;;;;;;17.30;99.90;;;;;;2619456;54;19963;-72
2021/08/31 02:40:52;;;;;;;;;;;17.20;99.90;;;;;;2619360;54;19941;-72
2021/08/31 02:43:17;;;;;;;;;;;17.20;99.90;;;;;;2618834;47;19935;-72
2021/08/31 02:45:43;;;;;;;;;;;17.20;99.90;;;;;;2619211;54;19934;-72
2021/08/31 02:48:09;;;;;;;;;;;17.10;99.90;;;;;;2619431;39;20354;-72
2021/08/31 02:50:37;;;;;;;;;;;17.00;99.90;;;;;;2618787;54;20461;-73
2021/08/31 02:53:03;;;;;;;;;;;16.90;99.90;;;;;;2618518;47;19938;-72
2021/08/31 02:55:29;;;;;;;;;;;16.70;99.90;;;;;;2619169;54;19939;-73
2021/08/31 02:57:56;;;;;;;;;;;16.50;99.90;;;;;;2619369;54;19939;-73
2021/08/31 03:00:28;;;;;;;;;;;16.60;99.90;;;;;;2619158;54;19959;-73
2021/08/31 03:02:54;;;;;;;;;;;16.60;99.90;;;;;;2619050;54;19935;-72
2021/08/31 03:05:20;;;;;;;;;;;16.60;99.90;;;;;;2619072;54;19946;-73
2021/08/31 03:07:48;;;;;;;;;;;16.50;99.90;;;;;;2618888;54;19954;-73
2021/08/31 03:10:14;;;;;;;;;;;16.50;99.90;;;;;;2619162;54;20452;-72
2021/08/31 03:12:40;;;;;;;;;;;16.50;99.90;;;;;;2619226;54;20018;-72
2021/08/31 03:15:06;;;;;;;;;;;16.40;99.90;;;;;;2619131;54;19941;-73
2021/08/31 03:17:32;;;;;;;;;;;16.50;99.90;;;;;;2618863;54;20103;-73
2021/08/31 03:19:57;;;;;;;;;;;16.40;99.90;;;;;;2619103;54;19962;-73
2021/08/31 03:22:23;;;;;;;;;;;16.50;99.90;;;;;;2619129;54;19939;-73
2021/08/31 03:24:52;;;;;;;;;;;16.60;99.90;;;;;;2619209;54;19950;-72
2021/08/31 03:27:17;;;;;;;;;;;16.60;99.90;;;;;;2619393;54;20068;-73
2021/08/31 03:29:43;;;;;;;;;;;16.50;99.90;;;;;;2618628;47;19934;-73
2021/08/31 03:32:09;;;;;;;;;;;16.50;99.90;;;;;;2619716;54;19943;-73
2021/08/31 03:34:35;;;;;;;;;;;16.40;99.90;;;;;;2620264;31;20417;-73
2021/08/31 03:37:00;;;;;;;;;;;16.50;99.90;;;;;;2619461;54;20028;-72
2021/08/31 03:39:26;;;;;;;;;;;16.50;99.90;;;;;;2619430;54;19973;-73
2021/08/31 03:41:54;;;;;;;;;;;16.50;99.90;;;;;;2619392;54;19980;-73
2021/08/31 03:44:20;;;;;;;;;;;16.60;99.90;;;;;;2619117;54;19935;-72
2021/08/31 03:46:46;;;;;;;;;;;16.60;99.90;;;;;;2619303;54;19974;-73
2021/08/31 03:49:12;;;;;;;;;;;16.60;99.90;;;;;;2619198;54;20474;-73
2021/08/31 03:51:37;;;;;;;;;;;16.60;99.90;;;;;;2619072;54;19946;-72
2021/08/31 03:54:03;;;;;;;;;;;16.70;99.90;;;;;;2619357;54;19935;-73
2021/08/31 03:56:29;;;;;;;;;;;16.70;99.90;;;;;;2618517;47;20477;-74
2021/08/31 03:58:57;;;;;;;;;;;16.70;99.90;;;;;;2618599;46;20410;-73
2021/08/31 04:01:23;;;;;;;;;;;16.80;99.90;;;;;;2619018;54;19946;-72
2021/08/31 04:03:49;;;;;;;;;;;16.80;99.90;;;;;;2619070;39;20327;-72
2021/08/31 04:06:14;;;;;;;;;;;16.80;99.90;;;;;;2619267;54;19946;-73
2021/08/31 04:08:40;;;;;;;;;;;16.80;99.90;;;;;;2619425;54;19935;-72
2021/08/31 04:11:06;;;;;;;;;;;16.90;99.90;;;;;;2618656;46;20456;-72
2021/08/31 04:13:31;;;;;;;;;;;16.90;99.90;;;;;;2618993;54;19938;-74
2021/08/31 04:16:00;;;;;;;;;;;16.90;99.90;;;;;;2619073;54;19935;-72
2021/08/31 04:18:25;;;;;;;;;;;16.90;99.90;;;;;;2619146;54;20402;-72
2021/08/31 04:20:51;;;;;;;;;;;16.90;99.90;;;;;;2619107;54;19934;-72
2021/08/31 04:23:17;;;;;;;;;;;16.90;99.90;;;;;;2619097;54;19943;-72
2021/08/31 04:25:43;;;;;;;;;;;16.90;99.90;;;;;;2618657;54;19971;-73
2021/08/31 04:28:08;;;;;;;;;;;16.80;99.90;;;;;;2618256;47;20008;-74
2021/08/31 04:30:34;;;;;;;;;;;16.70;99.90;;;;;;2618653;54;19959;-72
2021/08/31 04:33:03;;;;;;;;;;;16.70;99.90;;;;;;2618877;54;19939;-73
2021/08/31 04:35:28;;;;;;;;;;;16.60;99.90;;;;;;2619365;39;20296;-73
2021/08/31 04:37:54;;;;;;;;;;;16.60;99.90;;;;;;2618770;54;19959;-73
2021/08/31 04:40:20;;;;;;;;;;;16.60;99.90;;;;;;2618758;54;19939;-73
2021/08/31 04:42:46;;;;;;;;;;;16.50;99.90;;;;;;2619513;31;20389;-73
2021/08/31 04:45:12;;;;;;;;;;;16.50;99.90;;;;;;2618864;54;19939;-73
2021/08/31 04:47:37;;;;;;;;;;;16.40;99.90;;;;;;2619308;39;20409;-73
2021/08/31 04:50:07;;;;;;;;;;;16.30;99.90;;;;;;2618545;54;20399;-72
2021/08/31 04:52:32;;;;;;;;;;;16.30;99.90;;;;;;2618664;39;20356;-73
2021/08/31 04:54:58;;;;;;;;;;;16.30;99.90;;;;;;2618187;54;19939;-73
2021/08/31 04:57:24;;;;;;;;;;;16.30;99.90;;;;;;2618060;54;20030;-73
2021/08/31 04:59:50;;;;;;;;;;;16.30;99.90;;;;;;2618575;54;19939;-73
2021/08/31 05:02:16;;;;;;;;;;;16.30;99.90;;;;;;2618237;54;20415;-73
2021/08/31 05:04:41;;;;;;;;;;;16.30;99.90;;;;;;2618675;39;20330;-73
2021/08/31 05:07:11;;;;;;;;;;;16.40;99.90;;;;;;2618844;39;20311;-72
2021/08/31 05:09:37;;;;;;;;;;;16.50;99.90;;;;;;2618782;54;19946;-74
2021/08/31 05:12:03;;;;;;;;;;;16.50;99.90;;;;;;2618892;54;19965;-72
2021/08/31 05:14:28;;;;;;;;;;;16.60;99.90;;;;;;2618922;54;19935;-73
2021/08/31 05:16:54;;;;;;;;;;;16.70;99.90;;;;;;2618897;54;19987;-73
2021/08/31 05:19:20;;;;;;;;;;;16.60;99.90;;;;;;2618881;54;19942;-72
2021/08/31 05:21:48;;;;;;;;;;;16.70;99.90;;;;;;2618615;54;20006;-73
2021/08/31 05:24:17;;;;;;;;;;;16.60;99.90;;;;;;2618668;54;19939;-72
2021/08/31 05:26:42;;;;;;;;;;;16.70;99.90;;;;;;2618637;54;20410;-73
2021/08/31 05:29:08;;;;;;;;;;;16.70;99.90;;;;;;2617977;47;19939;-73
2021/08/31 05:31:34;;;;;;;;;;;16.70;99.90;;;;;;2618790;54;19939;-73
2021/08/31 05:34:00;;;;;;;;;;;16.70;99.90;;;;;;2618662;54;19935;-73
2021/08/31 05:36:27;;;;;;;;;;;16.70;99.90;;;;;;2618559;54;20054;-73
2021/08/31 05:38:53;;;;;;;;;;;16.80;99.90;;;;;;2619006;54;19939;-74
2021/08/31 05:41:21;;;;;;;;;;;16.80;99.90;;;;;;2619189;54;19935;-72
2021/08/31 05:43:47;;;;;;;;;;;16.90;99.90;;;;;;2619642;54;19939;-75
2021/08/31 05:46:12;;;;;;;;;;;16.90;99.90;;;;;;2619419;54;19969;-72
2021/08/31 05:48:38;;;;;;;;;;;16.90;99.90;;;;;;2619904;39;20323;-73
2021/08/31 05:51:07;;;;;;;;;;;17.00;99.90;;;;;;2619676;54;20344;-74
2021/08/31 05:53:33;;;;;;;;;;;17.00;99.90;;;;;;2619524;54;19934;-73
2021/08/31 05:55:59;;;;;;;;;;;17.10;99.90;;;;;;2619964;39;20033;-73
2021/08/31 05:58:27;;;;;;;;;;;17.10;99.90;;;;;;2619497;54;20411;-73
2021/08/31 06:00:53;;;;;;;;;;;17.20;99.90;;;;;;2619353;54;20003;-73
2021/08/31 06:03:19;;;;;;;;;;;17.20;99.90;;;;;;2619330;54;20417;-72
2021/08/31 06:05:45;;;;;;;;;;;17.20;99.90;;;;;;2619203;54;19945;-73
2021/08/31 06:08:11;;;;;;;;;;;17.20;99.90;;;;;;2619245;54;19935;-72
2021/08/31 06:10:39;;;;;;;;;;;17.20;99.90;;;;;;2619372;54;19941;-74
2021/08/31 06:13:05;;;;;;;;;;;17.10;99.90;;;;;;2619364;54;19938;-75
2021/08/31 06:15:33;;;;;;;;;;;17.20;99.90;;;;;;2619392;54;20050;-72
2021/08/31 06:17:59;;;;;;;;;;;17.20;99.90;;;;;;2619469;54;19942;-74
2021/08/31 06:20:25;;;;;;;;;;;17.30;99.90;;;;;;2619388;54;19934;-73
2021/08/31 06:22:51;;;;;;;;;;;17.40;99.90;;;;;;2619384;54;19935;-73
2021/08/31 06:25:16;;;;;;;;;;;17.50;99.90;;;;;;2619122;54;19941;-73
2021/08/31 06:27:42;;;;;;;;;;;17.60;99.90;;;;;;2619438;54;19941;-74
2021/08/31 06:30:08;;;;;;;;;;;17.80;99.90;;;;;;2619265;54;19945;-73
2021/08/31 06:32:37;;;;;;;;;;;17.90;99.90;;;;;;2618876;54;19939;-73
2021/08/31 06:35:02;;;;;;;;;;;18.00;99.90;;;;;;2619218;54;19935;-73
2021/08/31 06:37:28;;;;;;;;;;;18.10;99.90;;;;;;2618682;47;20426;-72
2021/08/31 06:39:54;;;;;;;;;;;18.20;99.90;;;;;;2619209;54;19965;-72
2021/08/31 06:42:20;;;;;;;;;;;18.20;99.90;;;;;;2618604;54;19935;-73
2021/08/31 06:44:45;;;;;;;;;;;18.30;99.90;;;;;;2619099;54;19942;-73
2021/08/31 06:47:11;;;;;;;;;;;18.40;99.90;;;;;;2619537;54;19939;-74
2021/08/31 06:49:40;;;;;;;;;;;18.50;99.90;;;;;;2620180;31;20413;-74
2021/08/31 06:52:06;;;;;;;;;;;18.50;99.90;;;;;;2619899;31;20389;-73
2021/08/31 06:54:32;;;;;;;;;;;18.60;99.90;;;;;;2619485;39;20334;-73
2021/08/31 06:56:58;;;;;;;;;;;18.60;99.90;;;;;;2618740;46;19973;-73
2021/08/31 06:59:24;;;;;;;;;;;18.70;99.90;;;;;;2619554;54;19946;-74
2021/08/31 07:01:50;;;;;;;;;;;18.70;99.90;;;;;;2619476;54;20683;-72
2021/08/31 07:04:15;;;;;;;;;;;18.70;99.90;;;;;;2619695;39;20350;-74
2021/08/31 07:06:44;;;;;;;;;;;18.80;99.90;;;;;;2618551;54;19946;-73
2021/08/31 07:09:09;;;;;;;;;;;18.90;99.90;;;;;;2619090;54;19942;-73
2021/08/31 07:11:35;;;;;;;;;;;19.00;99.90;;;;;;2619902;31;20399;-73
2021/08/31 07:14:01;;;;;;;;;;;19.10;99.90;;;;;;2619191;54;19939;-73
2021/08/31 07:16:26;;;;;;;;;;;19.10;99.80;;;;;;2618542;47;19946;-72
2021/08/31 07:18:52;;;;;;;;;;;19.10;99.90;;;;;;2618541;47;19942;-72
2021/08/31 07:21:18;;;;;;;;;;;19.20;98.90;;;;;;2619481;39;20366;-72
2021/08/31 07:23:46;;;;;;;;;;;19.20;99.60;;;;;;2619110;54;20418;-74
2021/08/31 07:26:12;;;;;;;;;;;19.30;99.10;;;;;;2619033;54;19939;-72
2021/08/31 07:28:38;;;;;;;;;;;19.30;99.00;;;;;;2618958;54;19946;-72
2021/08/31 07:31:04;;;;;;;;;;;19.30;98.50;;;;;;2617353;54;20030;-72
2021/08/31 07:33:29;;;;;;;;;;;19.40;98.80;;;;;;2617802;47;19951;-72
2021/08/31 07:35:55;;;;;;;;;;;19.40;98.60;;;;;;2618559;54;19934;-73
2021/08/31 07:38:21;;;;;;;;;;;19.50;98.10;;;;;;2619006;31;20354;-73
2021/08/31 07:40:49;;;;;;;;;;;19.50;97.80;;;;;;2619325;31;20429;-74
2021/08/31 07:43:15;;;;;;;;;;;19.50;99.90;;;;;;2616891;47;20037;-72
2021/08/31 07:45:41;;;;;;;;;;;19.60;99.90;;;;;;2618436;54;19935;-72
2021/08/31 07:48:07;;;;;;;;;;;19.50;99.90;;;;;;2618381;54;19941;-72
2021/08/31 07:50:32;;;;;;;;;;;19.50;99.90;;;;;;2618291;54;19942;-74
2021/08/31 07:52:58;;;;;;;;;;;19.50;99.90;;;;;;2618316;54;19942;-72
2021/08/31 07:55:25;;;;;;;;;;;19.60;99.90;;;;;;2618266;54;19935;-73
2021/08/31 07:57:53;;;;;;;;;;;19.60;99.90;;;;;;2618191;54;20495;-72
2021/08/31 08:00:19;;;;;;;;;;;19.60;99.90;;;;;;2618413;39;20455;-72
2021/08/31 08:02:45;;;;;;;;;;;19.60;99.90;;;;;;2617531;47;19935;-73
2021/08/31 08:05:11;;;;;;;;;;;19.50;99.90;;;;;;2618248;54;19934;-72
2021/08/31 08:07:37;;;;;;;;;;;19.60;99.90;;;;;;2618260;54;19941;-72
2021/08/31 08:10:03;;;;;;;;;;;19.70;99.90;;;;;;2618532;54;19984;-72
2021/08/31 08:12:29;;;;;;;;;;;19.90;99.90;;;;;;2618153;54;20426;-73
2021/08/31 08:14:57;;;;;;;;;;;20.00;99.90;;;;;;2618449;54;19935;-72
2021/08/31 08:17:23;;;;;;;;;;;20.20;99.90;;;;;;2617890;47;20445;-72
2021/08/31 08:19:50;;;;;;;;;;;20.30;99.90;;;;;;2618888;54;19935;-71
2021/08/31 08:22:16;;;;;;;;;;;20.50;99.90;;;;;;2618596;54;20407;-72
2021/08/31 08:24:41;;;;;;;;;;;20.70;99.90;;;;;;2617649;47;19980;-74
2021/08/31 08:27:08;;;;;;;;;;;20.90;99.90;;;;;;2618399;54;19938;-72
2021/08/31 08:29:37;;;;;;;;;;;20.90;99.90;;;;;;2618457;54;20038;-72
2021/08/31 08:32:06;;;;;;;;;;;21.10;99.90;;;;;;2618000;54;19946;-72
2021/08/31 08:34:32;;;;;;;;;;;21.40;99.90;;;;;;2617791;54;19946;-72
2021/08/31 08:36:59;;;;;;;;;;;21.50;99.90;;;;;;2618042;54;19935;-72
2021/08/31 08:39:25;;;;;;;;;;;21.50;99.90;;;;;;2617513;47;19934;-73
2021/08/31 08:41:51;;;;;;;;;;;21.60;99.90;;;;;;2617616;54;19935;-72
2021/08/31 08:44:16;;;;;;;;;;;21.60;99.90;;;;;;2618800;31;20429;-72
2021/08/31 08:46:43;;;;;;;;;;;21.80;99.90;;;;;;2617248;54;19946;-72
2021/08/31 08:49:14;;;;;;;;;;;22.00;99.90;;;;;;2617218;54;19942;-72
2021/08/31 08:51:40;;;;;;;;;;;22.30;99.90;;;;;;2618048;54;19942;-72
2021/08/31 08:54:06;;;;;;;;;;;22.40;99.90;;;;;;2618788;31;20407;-72
2021/08/31 08:56:32;;;;;;;;;;;22.30;99.10;;;;;;2618285;54;19935;-72
2021/08/31 08:58:58;;;;;;;;;;;22.50;99.90;;;;;;2617786;39;20194;-73
2021/08/31 09:01:38;;;;;;;;;;;22.40;99.60;;;;;;2618074;54;19943;-72
2021/08/31 09:04:04;;;;;;;;;;;22.50;99.50;;;;;;2618197;54;19935;-74
2021/08/31 09:06:33;;;;;;;;;;;22.80;98.50;;;;;;2618115;54;19949;-72
2021/08/31 09:08:59;;;;;;;;;;;22.80;98.80;;;;;;2618302;54;19935;-72
2021/08/31 09:11:26;;;;;;;;;;;23.00;99.40;;;;;;2618251;54;20438;-72
2021/08/31 09:13:54;;;;;;;;;;;23.20;98.50;;;;;;2618238;54;19934;-73
2021/08/31 09:16:21;;;;;;;;;;;22.90;98.40;;;;;;2617893;47;20022;-74
2021/08/31 09:18:49;;;;;;;;;;;22.90;98.60;;;;;;2618627;54;19946;-72
2021/08/31 09:21:19;;;;;;;;;;;22.80;99.00;;;;;;2618157;46;19934;-72
2021/08/31 09:23:48;;;;;;;;;;;22.80;99.80;;;;;;2618118;51;19979;-72
2021/08/31 09:26:18;;;;;;;;;;;22.90;99.90;;;;;;2618782;54;19995;-72
2021/08/31 09:28:44;;;;;;;;;;;22.80;99.90;;;;;;2618656;54;19935;-74
2021/08/31 09:31:11;;;;;;;;;;;22.80;99.90;;;;;;2619148;54;20423;-72
2021/08/31 09:33:38;;;;;;;;;;;22.90;99.90;;;;;;2618932;54;19959;-72
2021/08/31 09:36:09;;;;;;;;;;;23.10;99.90;;;;;;2618760;54;20782;-72
2021/08/31 09:38:39;;;;;;;;;;;23.30;99.90;;;;;;2618879;54;19961;-72
2021/08/31 09:41:08;;;;;;;;;;;23.60;99.90;;;;;;2618153;47;19935;-72
2021/08/31 09:43:35;;;;;;;;;;;23.10;99.90;;;;;;2618636;54;19935;-72
2021/08/31 09:46:01;;;;;;;;;;;23.20;99.90;;;;;;2618651;54;19935;-72
2021/08/31 09:48:26;;;;;;;;;;;23.20;99.90;;;;;;2618735;54;19950;-73
2021/08/31 09:50:53;;;;;;;;;;;23.40;99.40;;;;;;2619440;31;20439;-72
2021/08/31 09:53:19;;;;;;;;;;;24.30;99.90;;;;;;2618186;54;19959;-72
2021/08/31 09:55:46;;;;;;;;;;;23.80;98.90;;;;;;2619091;39;20338;-73
2021/08/31 09:58:16;;;;;;;;;;;23.70;98.30;;;;;;2618539;54;19953;-72
2021/08/31 10:00:43;;;;;;;;;;;23.40;98.60;;;;;;2618508;54;19935;-70
2021/08/31 10:03:09;;;;;;;;;;;23.30;98.90;;;;;;2618734;54;19935;-73
2021/08/31 10:05:35;;;;;;;;;;;23.50;99.30;;;;;;2618533;54;19980;-72
2021/08/31 10:08:01;;;;;;;;;;;23.70;98.50;;;;;;2618623;54;19946;-71
2021/08/31 10:10:27;;;;;;;;;;;23.60;98.00;;;;;;2618731;54;19935;-72
2021/08/31 10:12:54;;;;;;;;;;;23.80;98.20;;;;;;2618653;54;20429;-72
2021/08/31 10:15:23;;;;;;;;;;;24.00;98.20;;;;;;2618573;54;20058;-74
2021/08/31 10:17:49;;;;;;;;;;;24.20;97.90;;;;;;2618124;39;20331;-72
2021/08/31 10:20:17;;;;;;;;;;;24.20;97.30;;;;;;2618447;54;19935;-72
2021/08/31 10:22:43;;;;;;;;;;;23.90;97.60;;;;;;2618508;54;19946;-72
2021/08/31 10:25:09;;;;;;;;;;;23.60;98.50;;;;;;2618428;54;19958;-71
2021/08/31 10:27:36;;;;;;;;;;;23.60;98.20;;;;;;2618176;54;19935;-72
2021/08/31 10:30:16;;;;;;;;;;;23.50;98.90;;;;;;2618401;54;19942;-72
2021/08/31 10:32:46;;;;;;;;;;;23.50;99.50;;;;;;2618376;54;19934;-72
2021/08/31 10:35:43;;;;;;;;;;;23.90;98.50;;;;;;2618417;54;19934;-73
2021/08/31 10:38:10;;;;;;;;;;;23.90;98.10;;;;;;2618618;54;19934;-72
2021/08/31 10:40:36;;;;;;;;;;;24.30;98.50;;;;;;2618495;54;19934;-72
2021/08/31 10:43:02;;;;;;;;;;;24.80;98.20;;;;;;2618493;54;19934;-72
2021/08/31 10:45:30;;;;;;;;;;;24.70;96.80;;;;;;2618481;54;19934;-71
2021/08/31 10:47:58;;;;;;;;;;;24.40;97.00;;;;;;2617612;54;19951;-71
2021/08/31 10:50:24;;;;;;;;;;;24.70;97.40;;;;;;2618359;54;20652;-73
2021/08/31 10:53:06;;;;;;;;;;;24.60;96.60;;;;;;2618079;54;19983;-72
2021/08/31 10:55:39;;;;;;;;;;;24.60;96.80;;;;;;2617942;54;19942;-72
2021/08/31 10:58:08;;;;;;;;;;;25.00;98.10;;;;;;2617840;54;19961;-72
2021/08/31 11:00:47;;;;;;;;;;;24.50;96.10;;;;;;2618182;54;19961;-72
2021/08/31 11:03:28;;;;;;;;;;;24.40;95.80;;;;;;2617470;47;19935;-72
2021/08/31 11:06:12;;;;;;;;;;;24.70;96.10;;;;;;2618194;54;19935;-73
2021/08/31 11:08:38;;;;;;;;;;;24.80;96.30;;;;;;2618013;54;19950;-71
2021/08/31 11:11:03;;;;;;;;;;;25.00;95.40;;;;;;2618115;54;19995;-72
2021/08/31 11:13:29;;;;;;;;;;;25.10;95.50;;;;;;2617872;54;19934;-72
2021/08/31 11:15:55;;;;;;;;;;;25.20;95.00;;;;;;2617984;54;19942;-73
2021/08/31 11:18:23;;;;;;;;;;;25.00;94.40;;;;;;2617815;54;20025;-72
2021/08/31 11:20:49;;;;;;;;;;;25.10;96.00;;;;;;2618294;54;19970;-73
2021/08/31 11:23:19;;;;;;;;;;;25.00;94.80;;;;;;2618129;54;20030;-72
2021/08/31 11:25:45;;;;;;;;;;;25.10;94.50;;;;;;2618102;54;19979;-72
2021/08/31 11:28:12;;;;;;;;;;;24.90;94.80;;;;;;2617194;47;20467;-72
2021/08/31 11:30:46;;;;;;;;;;;25.10;94.60;;;;;;2616700;47;19980;-72
2021/08/31 11:33:17;;;;;;;;;;;25.60;95.90;;;;;;2617327;54;19939;-71
2021/08/31 11:35:43;;;;;;;;;;;;;;;;;;2617459;47;19941;-72
2021/08/31 11:38:12;;;;;;;;;;;25.30;94.00;;;;;;2618443;39;19993;-72
2021/08/31 11:40:38;;;;;;;;;;;25.20;94.40;;;;;;2617800;54;19934;-72
2021/08/31 11:43:04;;;;;;;;;;;25.00;94.10;;;;;;2618404;54;19982;-72
2021/08/31 11:45:33;;;;;;;;;;;25.20;94.50;;;;;;2618131;54;20406;-72
2021/08/31 11:47:59;;;;;;;;;;;25.60;94.60;;;;;;2618096;54;19935;-73
2021/08/31 11:50:25;;;;;;;;;;;26.00;92.80;;;;;;2617882;54;19934;-72
2021/08/31 11:52:51;;;;;;;;;;;26.00;93.50;;;;;;2618187;54;19946;-72
2021/08/31 11:55:27;;;;;;;;;;;25.90;93.40;;;;;;2618495;39;20362;-72
2021/08/31 11:58:02;;;;;;;;;;;25.70;93.80;;;;;;2617622;54;20422;-72
2021/08/31 12:00:38;;;;;;;;;;;25.70;93.60;;;;;;2617348;47;20030;-72
2021/08/31 12:03:16;;;;;;;;;;;25.80;94.70;;;;;;2617820;54;20025;-72
2021/08/31 12:05:42;;;;;;;;;;;25.70;95.30;;;;;;2617988;54;19959;-73
2021/08/31 12:08:08;;;;;;;;;;;26.20;94.90;;;;;;2618031;54;19934;-72
2021/08/31 12:10:36;;;;;;;;;;;26.20;94.60;;;;;;2617732;54;19941;-72
2021/08/31 12:13:02;;;;;;;;;;;26.30;94.40;;;;;;2618011;54;19953;-72
2021/08/31 12:15:28;;;;;;;;;;;26.30;94.50;;;;;;2617831;54;19938;-74
2021/08/31 12:17:58;;;;;;;;;;;26.40;94.30;;;;;;2617779;54;19946;-74
2021/08/31 12:20:24;;;;;;;;;;;26.10;94.10;;;;;;2617757;54;19947;-72
2021/08/31 12:22:51;;;;;;;;;;;26.10;93.50;;;;;;2617810;54;19938;-72
2021/08/31 12:25:18;;;;;;;;;;;26.10;92.40;;;;;;2617780;54;19934;-73
2021/08/31 12:27:48;;;;;;;;;;;25.80;93.30;;;;;;2617936;54;20395;-73
2021/08/31 12:30:16;;;;;;;;;;;25.70;93.00;;;;;;2617575;54;19946;-72
2021/08/31 12:32:42;;;;;;;;;;;25.50;92.80;;;;;;2617906;54;19935;-73
2021/08/31 12:35:24;;;;;;;;;;;25.30;94.10;;;;;;2617482;54;20430;-72
2021/08/31 12:38:02;;;;;;;;;;;25.00;93.80;;;;;;2617440;47;19934;-72
2021/08/31 12:40:29;;;;;;;;;;;24.70;94.20;;;;;;2617932;54;19934;-71
2021/08/31 12:43:02;;;;;;;;;;;24.70;94.40;;;;;;2617645;54;20446;-75
2021/08/31 12:45:28;;;;;;;;;;;24.60;94.30;;;;;;2617989;54;19947;-71
2021/08/31 12:47:54;;;;;;;;;;;24.50;94.80;;;;;;2618129;39;20327;-72
2021/08/31 12:50:21;;;;;;;;;;;24.70;94.20;;;;;;2618030;54;19946;-72
2021/08/31 12:52:56;;;;;;;;;;;25.00;94.50;;;;;;2617875;54;20022;-72
2021/08/31 12:55:26;;;;;;;;;;;25.20;94.10;;;;;;2617323;47;19975;-73
2021/08/31 12:57:52;;;;;;;;;;;25.50;93.60;;;;;;2618162;54;19941;-72
2021/08/31 13:00:21;;;;;;;;;;;25.50;93.80;;;;;;2618289;54;19935;-74
2021/08/31 13:02:52;;;;;;;;;;;25.80;93.60;;;;;;2617804;54;20061;-72
2021/08/31 13:05:18;;;;;;;;;;;26.00;92.50;;;;;;2617186;47;19990;-72
2021/08/31 13:07:44;;;;;;;;;;;26.10;92.40;;;;;;2617435;47;20407;-73
2021/08/31 13:10:10;;;;;;;;;;;26.30;91.20;;;;;;2617959;54;19951;-73
2021/08/31 13:12:36;;;;;;;;;;;26.40;92.00;;;;;;2617806;54;19960;-71
2021/08/31 13:15:02;;;;;;;;;;;25.80;91.80;;;;;;2617839;54;19947;-73
2021/08/31 13:17:30;;;;;;;;;;;26.10;92.70;;;;;;2617923;54;19953;-73
2021/08/31 13:19:56;;;;;;;;;;;;;;;;;;2617187;39;20312;-71
2021/08/31 13:22:22;;;;;;;;;;;26.90;99.80;;;;;;2617809;54;19946;-72
2021/08/31 13:24:48;;;;;;;;;;;26.90;94.80;;;;;;2617637;54;19935;-72
2021/08/31 13:27:15;;;;;;;;;;;26.90;89.40;;;;;;2617658;39;20287;-72
2021/08/31 13:29:41;;;;;;;;;;;;;;;;;;2617432;54;19941;-72
2021/08/31 13:32:07;;;;;;;;;;;27.40;99.90;;;;;;2617303;54;19935;-73
2021/08/31 13:34:36;;;;;;;;;;;27.20;91.60;;;;;;2617758;54;20042;-72
2021/08/31 13:37:01;;;;;;;;;;;27.10;88.50;;;;;;2617785;54;20026;-72
2021/08/31 13:39:29;;;;;;;;;;;27.10;88.50;;;;;;2617745;54;19960;-72
2021/08/31 13:41:55;;;;;;;;;;;27.30;87.20;;;;;;2617707;54;19984;-75
2021/08/31 13:44:21;;;;;;;;;;;27.40;87.80;;;;;;2617679;54;19942;-73
2021/08/31 13:46:47;;;;;;;;;;;27.80;85.70;;;;;;2617609;54;19934;-74
2021/08/31 13:49:13;;;;;;;;;;;28.30;84.10;;;;;;2617759;54;19983;-72
2021/08/31 13:51:41;;;;;;;;;;;28.40;83.00;;;;;;2617545;54;20022;-74
2021/08/31 13:54:07;;;;;;;;;;;28.80;83.00;;;;;;2617867;54;20470;-74
2021/08/31 13:56:33;;;;;;;;;;;29.20;83.00;;;;;;2618167;54;19938;-73
2021/08/31 13:58:59;;;;;;;;;;;29.00;83.20;;;;;;2618060;54;19953;-73
2021/08/31 14:01:25;;;;;;;;;;;28.90;80.70;;;;;;2618217;54;19946;-73
2021/08/31 14:03:51;;;;;;;;;;;29.00;81.30;;;;;;2618780;54;19934;-72
2021/08/31 14:06:16;;;;;;;;;;;28.60;80.50;;;;;;2618629;39;20404;-73
2021/08/31 14:08:45;;;;;;;;;;;28.20;81.00;;;;;;2618968;54;19950;-71
2021/08/31 14:11:11;;;;;;;;;;;28.30;81.50;;;;;;2618553;54;19935;-72
2021/08/31 14:13:36;;;;;;;;;;;27.90;82.10;;;;;;2618538;54;19935;-73
2021/08/31 14:16:02;;;;;;;;;;;27.80;81.70;;;;;;2618469;54;19934;-71
2021/08/31 14:18:28;;;;;;;;;;;27.70;81.50;;;;;;2618558;54;19941;-72
2021/08/31 14:20:54;;;;;;;;;;;27.70;82.80;;;;;;2618473;54;19946;-72
2021/08/31 14:23:20;;;;;;;;;;;27.80;82.40;;;;;;2618350;54;19951;-72
2021/08/31 14:25:48;;;;;;;;;;;27.90;81.50;;;;;;2618343;54;19959;-71
2021/08/31 14:28:16;;;;;;;;;;;28.30;81.50;;;;;;2618689;54;19950;-72
2021/08/31 14:30:42;;;;;;;;;;;28.50;81.20;;;;;;2618410;54;19942;-74
2021/08/31 14:33:08;;;;;;;;;;;27.90;80.80;;;;;;2618903;39;20011;-71
2021/08/31 14:35:34;;;;;;;;;;;28.40;81.70;;;;;;2618303;54;19941;-72
2021/08/31 14:38:00;;;;;;;;;;;28.70;80.40;;;;;;2618359;54;19939;-71
2021/08/31 14:40:26;;;;;;;;;;;28.80;80.30;;;;;;2618432;54;20054;-73
2021/08/31 14:42:54;;;;;;;;;;;28.70;80.50;;;;;;2618396;54;19934;-73
2021/08/31 14:45:20;;;;;;;;;;;28.50;80.10;;;;;;2617740;47;19934;-73
2021/08/31 14:47:46;;;;;;;;;;;28.50;80.60;;;;;;2618249;54;20035;-72
2021/08/31 14:50:13;;;;;;;;;;;28.10;82.20;;;;;;2618127;54;19969;-73
2021/08/31 14:52:39;;;;;;;;;;;27.90;81.50;;;;;;2618322;54;20055;-72
2021/08/31 14:55:05;;;;;;;;;;;28.10;81.90;;;;;;2618399;54;19938;-72
2021/08/31 14:57:31;;;;;;;;;;;28.00;80.30;;;;;;2617686;47;19934;-72
2021/08/31 15:00:00;;;;;;;;;;;28.20;81.20;;;;;;2617577;47;19947;-73
2021/08/31 15:02:25;;;;;;;;;;;28.70;80.90;;;;;;2618106;54;20018;-72
2021/08/31 15:04:51;;;;;;;;;;;29.10;81.50;;;;;;2618090;54;19946;-72
2021/08/31 15:07:17;;;;;;;;;;;29.20;80.00;;;;;;2618413;54;20443;-72
2021/08/31 15:09:43;;;;;;;;;;;29.00;78.20;;;;;;2618178;54;20030;-73
2021/08/31 15:12:09;;;;;;;;;;;29.00;79.10;;;;;;2618309;54;19952;-73
2021/08/31 15:14:35;;;;;;;;;;;29.30;78.60;;;;;;2617883;54;19934;-72
2021/08/31 15:17:04;;;;;;;;;;;29.50;76.80;;;;;;2618155;54;19977;-72
2021/08/31 15:19:30;;;;;;;;;;;29.70;77.90;;;;;;2618158;54;19962;-72
2021/08/31 15:21:55;;;;;;;;;;;29.60;78.40;;;;;;2617727;47;19946;-72
2021/08/31 15:24:21;;;;;;;;;;;29.60;76.30;;;;;;2618119;39;20355;-72
2021/08/31 15:26:47;;;;;;;;;;;29.60;75.70;;;;;;2618149;54;20451;-71
2021/08/31 15:29:13;;;;;;;;;;;29.20;75.80;;;;;;2618200;54;19935;-73
2021/08/31 15:31:39;;;;;;;;;;;28.80;78.20;;;;;;2618187;54;19934;-73
2021/08/31 15:34:10;;;;;;;;;;;28.90;78.00;;;;;;2617969;54;19935;-73
2021/08/31 15:36:36;;;;;;;;;;;29.00;77.50;;;;;;2618078;54;19974;-73
2021/08/31 15:39:02;;;;;;;;;;;29.20;76.60;;;;;;2618004;54;19961;-73
2021/08/31 15:41:28;;;;;;;;;;;29.10;78.10;;;;;;2617935;54;20018;-73